sensor_id;sensor_type;location;lat;lon;timestamp;temperature;humidity
21169;DHT22;10742;51.816;8.662;2023-03-01T00:02:37;3.30;74.40
21169;DHT22;10742;51.816;8.662;2023-03-01T00:05:46;3.30;74.40
21169;DHT22;10742;51.816;8.662;2023-03-01T00:08:49;3.30;74.50
21169;DHT22;10742;51.816;8.662;2023-03-01T00:11:52;3.20;73.90
21169;DHT22;10742;51.816;8.662;2023-03-01T00:14:54;3.20;73.80
21169;DHT22;10742;51.816;8.662;2023-03-01T00:17:57;3.10;73.80
21169;DHT22;10742;51.816;8.662;2023-03-01T00:20:59;3.00;74.00
21169;DHT22;10742;51.816;8.662;2023-03-01T00:24:02;2.90;74.10
21169;DHT22;10742;51.816;8.662;2023-03-01T00:27:04;2.80;74.40
21169;DHT22;10742;51.816;8.662;2023-03-01T00:30:08;2.70;74.50
21169;DHT22;10742;51.816;8.662;2023-03-01T00:33:12;2.70;75.10
21169;DHT22;10742;51.816;8.662;2023-03-01T00:36:15;2.70;76.20
21169;DHT22;10742;51.816;8.662;2023-03-01T00:39:18;2.60;75.60
21169;DHT22;10742;51.816;8.662;2023-03-01T00:42:21;2.60;75.70
21169;DHT22;10742;51.816;8.662;2023-03-01T00:45:25;2.60;75.70
21169;DHT22;10742;51.816;8.662;2023-03-01T00:48:28;2.60;75.70
21169;DHT22;10742;51.816;8.662;2023-03-01T00:51:30;2.50;75.80
21169;DHT22;10742;51.816;8.662;2023-03-01T00:54:32;2.60;75.80
21169;DHT22;10742;51.816;8.662;2023-03-01T00:57:35;2.50;75.90
21169;DHT22;10742;51.816;8.662;2023-03-01T01:00:37;2.50;76.00
21169;DHT22;10742;51.816;8.662;2023-03-01T01:03:42;2.50;76.20
21169;DHT22;10742;51.816;8.662;2023-03-01T01:06:46;2.50;76.40
21169;DHT22;10742;51.816;8.662;2023-03-01T01:09:48;2.50;76.60
21169;DHT22;10742;51.816;8.662;2023-03-01T01:12:51;2.50;76.40
21169;DHT22;10742;51.816;8.662;2023-03-01T01:15:54;2.40;76.40
21169;DHT22;10742;51.816;8.662;2023-03-01T01:18:57;2.40;76.30
21169;DHT22;10742;51.816;8.662;2023-03-01T01:21:59;2.40;76.20
21169;DHT22;10742;51.816;8.662;2023-03-01T01:25:08;2.40;76.00
21169;DHT22;10742;51.816;8.662;2023-03-01T01:28:10;2.30;76.00
21169;DHT22;10742;51.816;8.662;2023-03-01T01:31:13;2.30;75.90
21169;DHT22;10742;51.816;8.662;2023-03-01T01:34:20;2.20;75.90
21169;DHT22;10742;51.816;8.662;2023-03-01T01:37:23;2.10;76.30
21169;DHT22;10742;51.816;8.662;2023-03-01T01:40:33;2.00;76.20
21169;DHT22;10742;51.816;8.662;2023-03-01T01:43:38;2.00;76.50
21169;DHT22;10742;51.816;8.662;2023-03-01T01:46:53;1.90;77.10
21169;DHT22;10742;51.816;8.662;2023-03-01T01:49:57;1.90;77.70
21169;DHT22;10742;51.816;8.662;2023-03-01T01:53:00;1.80;77.30
21169;DHT22;10742;51.816;8.662;2023-03-01T01:56:03;1.80;77.70
21169;DHT22;10742;51.816;8.662;2023-03-01T01:59:07;1.90;78.00
21169;DHT22;10742;51.816;8.662;2023-03-01T02:02:12;1.90;77.90
21169;DHT22;10742;51.816;8.662;2023-03-01T02:06:12;1.90;78.10
21169;DHT22;10742;51.816;8.662;2023-03-01T02:08:48;1.90;78.60
21169;DHT22;10742;51.816;8.662;2023-03-01T02:11:53;2.00;78.20
21169;DHT22;10742;51.816;8.662;2023-03-01T02:14:55;2.00;78.20
21169;DHT22;10742;51.816;8.662;2023-03-01T02:17:58;2.00;78.20
21169;DHT22;10742;51.816;8.662;2023-03-01T02:31:21;2.10;78.00
21169;DHT22;10742;51.816;8.662;2023-03-01T02:35:05;2.10;78.10
21169;DHT22;10742;51.816;8.662;2023-03-01T02:38:28;2.10;77.80
21169;DHT22;10742;51.816;8.662;2023-03-01T02:41:34;2.10;77.70
21169;DHT22;10742;51.816;8.662;2023-03-01T02:44:40;2.00;77.70
21169;DHT22;10742;51.816;8.662;2023-03-01T02:47:43;2.00;77.80
21169;DHT22;10742;51.816;8.662;2023-03-01T02:50:56;2.00;78.00
21169;DHT22;10742;51.816;8.662;2023-03-01T02:54:16;2.00;78.80
21169;DHT22;10742;51.816;8.662;2023-03-01T02:57:41;1.90;78.10
21169;DHT22;10742;51.816;8.662;2023-03-01T03:01:03;2.00;78.00
21169;DHT22;10742;51.816;8.662;2023-03-01T03:04:25;1.90;77.90
21169;DHT22;10742;51.816;8.662;2023-03-01T03:07:48;1.90;78.00
21169;DHT22;10742;51.816;8.662;2023-03-01T03:11:10;1.90;78.10
21169;DHT22;10742;51.816;8.662;2023-03-01T03:14:31;1.90;77.90
21169;DHT22;10742;51.816;8.662;2023-03-01T03:17:59;1.80;78.00
21169;DHT22;10742;51.816;8.662;2023-03-01T03:21:22;1.80;78.20
21169;DHT22;10742;51.816;8.662;2023-03-01T03:24:43;1.80;78.30
21169;DHT22;10742;51.816;8.662;2023-03-01T03:28:06;1.80;78.30
21169;DHT22;10742;51.816;8.662;2023-03-01T03:31:31;1.80;78.50
21169;DHT22;10742;51.816;8.662;2023-03-01T03:34:52;1.80;78.40
21169;DHT22;10742;51.816;8.662;2023-03-01T03:38:15;1.70;78.40
21169;DHT22;10742;51.816;8.662;2023-03-01T03:41:19;1.70;78.60
21169;DHT22;10742;51.816;8.662;2023-03-01T03:44:23;1.70;78.60
21169;DHT22;10742;51.816;8.662;2023-03-01T03:47:29;1.70;78.70
21169;DHT22;10742;51.816;8.662;2023-03-01T03:50:33;1.70;79.30
21169;DHT22;10742;51.816;8.662;2023-03-01T03:53:35;1.70;78.80
21169;DHT22;10742;51.816;8.662;2023-03-01T03:56:38;1.70;79.50
21169;DHT22;10742;51.816;8.662;2023-03-01T03:59:41;1.70;81.10
21169;DHT22;10742;51.816;8.662;2023-03-01T04:02:43;1.70;80.60
21169;DHT22;10742;51.816;8.662;2023-03-01T04:05:48;1.70;80.30
21169;DHT22;10742;51.816;8.662;2023-03-01T04:08:53;1.80;80.00
21169;DHT22;10742;51.816;8.662;2023-03-01T04:12:02;1.80;79.60
21169;DHT22;10742;51.816;8.662;2023-03-01T04:15:06;1.80;79.50
21169;DHT22;10742;51.816;8.662;2023-03-01T04:18:16;1.80;79.60
21169;DHT22;10742;51.816;8.662;2023-03-01T04:21:21;1.80;79.50
21169;DHT22;10742;51.816;8.662;2023-03-01T04:24:23;1.80;79.40
21169;DHT22;10742;51.816;8.662;2023-03-01T04:27:26;1.70;79.50
21169;DHT22;10742;51.816;8.662;2023-03-01T04:30:29;1.70;79.50
21169;DHT22;10742;51.816;8.662;2023-03-01T04:33:32;1.70;79.60
21169;DHT22;10742;51.816;8.662;2023-03-01T04:36:35;1.70;79.80
21169;DHT22;10742;51.816;8.662;2023-03-01T04:39:38;1.70;80.00
21169;DHT22;10742;51.816;8.662;2023-03-01T04:42:51;1.70;79.90
21169;DHT22;10742;51.816;8.662;2023-03-01T04:45:54;1.70;79.80
21169;DHT22;10742;51.816;8.662;2023-03-01T04:48:57;1.70;79.70
21169;DHT22;10742;51.816;8.662;2023-03-01T04:52:03;1.70;79.90
21169;DHT22;10742;51.816;8.662;2023-03-01T04:55:06;1.70;80.20
21169;DHT22;10742;51.816;8.662;2023-03-01T04:58:09;1.70;79.90
21169;DHT22;10742;51.816;8.662;2023-03-01T05:01:18;1.70;79.80
21169;DHT22;10742;51.816;8.662;2023-03-01T05:04:25;1.70;80.20
21169;DHT22;10742;51.816;8.662;2023-03-01T05:07:28;1.70;80.00
21169;DHT22;10742;51.816;8.662;2023-03-01T05:10:31;1.70;79.70
21169;DHT22;10742;51.816;8.662;2023-03-01T05:13:36;1.70;79.90
21169;DHT22;10742;51.816;8.662;2023-03-01T05:16:39;1.70;80.00
21169;DHT22;10742;51.816;8.662;2023-03-01T05:19:41;1.70;80.20
21169;DHT22;10742;51.816;8.662;2023-03-01T05:22:45;1.60;80.20
21169;DHT22;10742;51.816;8.662;2023-03-01T05:25:47;1.60;80.30
21169;DHT22;10742;51.816;8.662;2023-03-01T05:28:50;1.60;80.30
21169;DHT22;10742;51.816;8.662;2023-03-01T05:31:58;1.60;80.30
21169;DHT22;10742;51.816;8.662;2023-03-01T05:35:02;1.60;80.60
21169;DHT22;10742;51.816;8.662;2023-03-01T05:38:08;1.60;80.20
21169;DHT22;10742;51.816;8.662;2023-03-01T05:41:14;1.60;80.10
21169;DHT22;10742;51.816;8.662;2023-03-01T05:44:19;1.60;80.30
21169;DHT22;10742;51.816;8.662;2023-03-01T05:47:22;1.60;80.10
21169;DHT22;10742;51.816;8.662;2023-03-01T05:50:29;1.60;80.00
21169;DHT22;10742;51.816;8.662;2023-03-01T05:53:35;1.60;80.30
21169;DHT22;10742;51.816;8.662;2023-03-01T05:56:40;1.60;80.80
21169;DHT22;10742;51.816;8.662;2023-03-01T05:59:42;1.60;80.10
21169;DHT22;10742;51.816;8.662;2023-03-01T06:02:45;1.60;80.10
21169;DHT22;10742;51.816;8.662;2023-03-01T06:05:47;1.50;80.00
21169;DHT22;10742;51.816;8.662;2023-03-01T06:08:51;1.50;79.90
21169;DHT22;10742;51.816;8.662;2023-03-01T06:11:53;1.50;79.80
21169;DHT22;10742;51.816;8.662;2023-03-01T06:14:56;1.40;79.90
21169;DHT22;10742;51.816;8.662;2023-03-01T06:17:58;1.40;80.10
21169;DHT22;10742;51.816;8.662;2023-03-01T06:21:02;1.40;80.40
21169;DHT22;10742;51.816;8.662;2023-03-01T06:24:05;1.40;80.70
21169;DHT22;10742;51.816;8.662;2023-03-01T06:27:09;1.30;80.70
21169;DHT22;10742;51.816;8.662;2023-03-01T06:30:15;1.30;81.30
21169;DHT22;10742;51.816;8.662;2023-03-01T06:33:18;1.30;80.70
21169;DHT22;10742;51.816;8.662;2023-03-01T06:36:22;1.30;80.60
21169;DHT22;10742;51.816;8.662;2023-03-01T06:39:28;1.30;80.70
21169;DHT22;10742;51.816;8.662;2023-03-01T06:42:30;1.30;81.40
21169;DHT22;10742;51.816;8.662;2023-03-01T06:45:34;1.30;81.50
21169;DHT22;10742;51.816;8.662;2023-03-01T06:48:37;1.30;81.40
21169;DHT22;10742;51.816;8.662;2023-03-01T06:51:40;1.30;81.40
21169;DHT22;10742;51.816;8.662;2023-03-01T06:54:49;1.40;81.60
21169;DHT22;10742;51.816;8.662;2023-03-01T06:57:56;1.40;82.10
21169;DHT22;10742;51.816;8.662;2023-03-01T07:00:59;1.40;81.70
21169;DHT22;10742;51.816;8.662;2023-03-01T07:04:03;1.40;81.80
21169;DHT22;10742;51.816;8.662;2023-03-01T07:07:08;1.50;82.10
21169;DHT22;10742;51.816;8.662;2023-03-01T07:10:11;1.60;82.50
21169;DHT22;10742;51.816;8.662;2023-03-01T07:13:17;1.70;83.00
21169;DHT22;10742;51.816;8.662;2023-03-01T07:16:20;1.80;83.10
21169;DHT22;10742;51.816;8.662;2023-03-01T07:19:23;1.90;83.30
21169;DHT22;10742;51.816;8.662;2023-03-01T07:22:26;2.10;83.40
21169;DHT22;10742;51.816;8.662;2023-03-01T07:25:38;2.20;83.50
21169;DHT22;10742;51.816;8.662;2023-03-01T07:28:42;2.40;83.80
21169;DHT22;10742;51.816;8.662;2023-03-01T07:31:45;2.60;83.60
21169;DHT22;10742;51.816;8.662;2023-03-01T07:35:07;2.70;83.70
21169;DHT22;10742;51.816;8.662;2023-03-01T07:38:29;3.00;83.60
21169;DHT22;10742;51.816;8.662;2023-03-01T07:41:51;3.20;83.50
21169;DHT22;10742;51.816;8.662;2023-03-01T07:44:57;3.30;83.20
21169;DHT22;10742;51.816;8.662;2023-03-01T07:48:02;3.50;83.30
21169;DHT22;10742;51.816;8.662;2023-03-01T07:51:06;3.60;83.40
21169;DHT22;10742;51.816;8.662;2023-03-01T07:54:10;3.80;83.40
21169;DHT22;10742;51.816;8.662;2023-03-01T07:57:13;4.00;83.30
21169;DHT22;10742;51.816;8.662;2023-03-01T08:00:17;4.20;83.30
21169;DHT22;10742;51.816;8.662;2023-03-01T08:03:19;4.40;83.30
21169;DHT22;10742;51.816;8.662;2023-03-01T08:06:22;4.60;82.90
21169;DHT22;10742;51.816;8.662;2023-03-01T08:09:28;4.80;82.70
21169;DHT22;10742;51.816;8.662;2023-03-01T08:12:31;4.90;82.40
21169;DHT22;10742;51.816;8.662;2023-03-01T08:15:33;5.10;82.30
21169;DHT22;10742;51.816;8.662;2023-03-01T08:18:35;5.20;82.00
21169;DHT22;10742;51.816;8.662;2023-03-01T08:21:38;5.40;81.70
21169;DHT22;10742;51.816;8.662;2023-03-01T08:24:40;5.50;81.40
21169;DHT22;10742;51.816;8.662;2023-03-01T08:27:43;5.60;81.10
21169;DHT22;10742;51.816;8.662;2023-03-01T08:30:45;5.60;80.90
21169;DHT22;10742;51.816;8.662;2023-03-01T08:33:48;5.70;80.60
21169;DHT22;10742;51.816;8.662;2023-03-01T08:36:53;5.80;80.50
21169;DHT22;10742;51.816;8.662;2023-03-01T08:39:56;5.90;80.40
21169;DHT22;10742;51.816;8.662;2023-03-01T08:43:00;6.00;80.50
21169;DHT22;10742;51.816;8.662;2023-03-01T08:46:06;6.10;80.40
21169;DHT22;10742;51.816;8.662;2023-03-01T08:49:11;6.20;80.30
21169;DHT22;10742;51.816;8.662;2023-03-01T08:52:15;6.30;80.10
21169;DHT22;10742;51.816;8.662;2023-03-01T08:55:19;6.50;80.20
21169;DHT22;10742;51.816;8.662;2023-03-01T08:58:31;6.70;79.80
21169;DHT22;10742;51.816;8.662;2023-03-01T09:01:34;6.90;79.60
21169;DHT22;10742;51.816;8.662;2023-03-01T09:04:36;7.10;79.50
21169;DHT22;10742;51.816;8.662;2023-03-01T09:07:43;7.30;79.30
21169;DHT22;10742;51.816;8.662;2023-03-01T09:10:47;7.50;78.90
21169;DHT22;10742;51.816;8.662;2023-03-01T09:13:52;7.70;78.10
21169;DHT22;10742;51.816;8.662;2023-03-01T09:17:18;7.90;77.10
21169;DHT22;10742;51.816;8.662;2023-03-01T09:20:43;8.00;76.00
21169;DHT22;10742;51.816;8.662;2023-03-01T09:24:36;8.10;74.30
21169;DHT22;10742;51.816;8.662;2023-03-01T09:31:31;8.20;73.40
21169;DHT22;10742;51.816;8.662;2023-03-01T09:34:34;8.20;72.40
21169;DHT22;10742;51.816;8.662;2023-03-01T09:37:59;8.30;72.40
21169;DHT22;10742;51.816;8.662;2023-03-01T09:41:02;8.40;72.70
21169;DHT22;10742;51.816;8.662;2023-03-01T09:50:49;8.50;71.70
21169;DHT22;10742;51.816;8.662;2023-03-01T09:53:53;8.60;71.20
21169;DHT22;10742;51.816;8.662;2023-03-01T09:57:06;8.70;70.70
21169;DHT22;10742;51.816;8.662;2023-03-01T10:00:24;8.70;70.40
21169;DHT22;10742;51.816;8.662;2023-03-01T10:03:43;8.80;69.50
21169;DHT22;10742;51.816;8.662;2023-03-01T10:10:40;8.90;68.60
21169;DHT22;10742;51.816;8.662;2023-03-01T10:20:53;9.10;68.10
21169;DHT22;10742;51.816;8.662;2023-03-01T10:24:01;9.20;68.10
21169;DHT22;10742;51.816;8.662;2023-03-01T10:33:37;9.50;67.10
21169;DHT22;10742;51.816;8.662;2023-03-01T10:36:43;9.60;68.10
21169;DHT22;10742;51.816;8.662;2023-03-01T10:39:58;9.70;67.40
21169;DHT22;10742;51.816;8.662;2023-03-01T10:43:05;9.70;66.20
21169;DHT22;10742;51.816;8.662;2023-03-01T10:46:32;9.70;66.30
21169;DHT22;10742;51.816;8.662;2023-03-01T10:49:35;9.70;65.60
21169;DHT22;10742;51.816;8.662;2023-03-01T10:52:41;9.80;66.50
21169;DHT22;10742;51.816;8.662;2023-03-01T10:55:44;9.80;65.60
21169;DHT22;10742;51.816;8.662;2023-03-01T10:59:03;9.80;65.00
21169;DHT22;10742;51.816;8.662;2023-03-01T11:05:32;9.90;65.10
21169;DHT22;10742;51.816;8.662;2023-03-01T11:08:41;10.00;64.20
21169;DHT22;10742;51.816;8.662;2023-03-01T11:11:45;10.10;64.30
21169;DHT22;10742;51.816;8.662;2023-03-01T11:14:56;10.00;64.10
21169;DHT22;10742;51.816;8.662;2023-03-01T11:17:59;10.00;63.60
21169;DHT22;10742;51.816;8.662;2023-03-01T11:21:50;10.00;64.10
21169;DHT22;10742;51.816;8.662;2023-03-01T11:24:56;10.00;63.20
21169;DHT22;10742;51.816;8.662;2023-03-01T11:28:14;10.00;64.20
21169;DHT22;10742;51.816;8.662;2023-03-01T11:31:22;10.10;63.60
21169;DHT22;10742;51.816;8.662;2023-03-01T11:34:43;10.20;64.10
21169;DHT22;10742;51.816;8.662;2023-03-01T11:44:28;10.40;63.10
21169;DHT22;10742;51.816;8.662;2023-03-01T11:47:58;10.40;62.90
21169;DHT22;10742;51.816;8.662;2023-03-01T11:51:15;10.50;62.40
21169;DHT22;10742;51.816;8.662;2023-03-01T12:01:25;10.40;62.50
21169;DHT22;10742;51.816;8.662;2023-03-01T12:04:54;10.40;61.10
21169;DHT22;10742;51.816;8.662;2023-03-01T12:08:13;10.40;61.60
21169;DHT22;10742;51.816;8.662;2023-03-01T12:14:58;10.40;61.70
21169;DHT22;10742;51.816;8.662;2023-03-01T12:22:05;10.40;60.80
21169;DHT22;10742;51.816;8.662;2023-03-01T12:32:55;10.40;60.60
21169;DHT22;10742;51.816;8.662;2023-03-01T12:36:33;10.40;60.60
21169;DHT22;10742;51.816;8.662;2023-03-01T12:50:02;10.40;60.10
21169;DHT22;10742;51.816;8.662;2023-03-01T12:53:19;10.40;60.20
21169;DHT22;10742;51.816;8.662;2023-03-01T12:56:31;10.40;60.40
21169;DHT22;10742;51.816;8.662;2023-03-01T12:59:37;10.50;58.50
21169;DHT22;10742;51.816;8.662;2023-03-01T13:02:52;10.50;59.20
21169;DHT22;10742;51.816;8.662;2023-03-01T13:06:21;10.50;59.50
21169;DHT22;10742;51.816;8.662;2023-03-01T13:16:40;10.60;58.40
21169;DHT22;10742;51.816;8.662;2023-03-01T13:19:56;10.60;57.60
21169;DHT22;10742;51.816;8.662;2023-03-01T13:26:08;10.60;57.90
21169;DHT22;10742;51.816;8.662;2023-03-01T13:29:26;10.50;57.60
21169;DHT22;10742;51.816;8.662;2023-03-01T13:32:31;10.60;57.40
21169;DHT22;10742;51.816;8.662;2023-03-01T13:35:56;10.60;57.70
21169;DHT22;10742;51.816;8.662;2023-03-01T13:39:01;10.70;57.90
21169;DHT22;10742;51.816;8.662;2023-03-01T13:42:29;10.80;57.50
21169;DHT22;10742;51.816;8.662;2023-03-01T13:45:40;10.90;56.80
21169;DHT22;10742;51.816;8.662;2023-03-01T13:48:44;11.00;57.40
21169;DHT22;10742;51.816;8.662;2023-03-01T13:51:48;11.00;57.30
21169;DHT22;10742;51.816;8.662;2023-03-01T13:54:52;11.00;57.10
21169;DHT22;10742;51.816;8.662;2023-03-01T13:57:59;11.10;56.90
21169;DHT22;10742;51.816;8.662;2023-03-01T14:01:07;11.10;56.70
21169;DHT22;10742;51.816;8.662;2023-03-01T14:04:26;11.10;57.00
21169;DHT22;10742;51.816;8.662;2023-03-01T14:07:37;11.20;56.70
21169;DHT22;10742;51.816;8.662;2023-03-01T14:17:55;11.10;55.50
21169;DHT22;10742;51.816;8.662;2023-03-01T14:21:07;11.10;55.50
21169;DHT22;10742;51.816;8.662;2023-03-01T14:24:38;11.10;54.90
21169;DHT22;10742;51.816;8.662;2023-03-01T14:27:42;11.00;55.50
21169;DHT22;10742;51.816;8.662;2023-03-01T14:30:48;11.00;56.40
21169;DHT22;10742;51.816;8.662;2023-03-01T14:33:56;11.00;56.20
21169;DHT22;10742;51.816;8.662;2023-03-01T14:40:37;10.90;56.70
21169;DHT22;10742;51.816;8.662;2023-03-01T14:43:55;10.90;57.00
21169;DHT22;10742;51.816;8.662;2023-03-01T14:47:01;10.90;57.20
21169;DHT22;10742;51.816;8.662;2023-03-01T14:50:21;10.80;56.70
21169;DHT22;10742;51.816;8.662;2023-03-01T14:53:26;10.80;57.00
21169;DHT22;10742;51.816;8.662;2023-03-01T14:56:43;10.70;57.30
21169;DHT22;10742;51.816;8.662;2023-03-01T14:59:58;10.70;58.00
21169;DHT22;10742;51.816;8.662;2023-03-01T15:03:17;10.70;57.50
21169;DHT22;10742;51.816;8.662;2023-03-01T15:06:24;10.70;57.10
21169;DHT22;10742;51.816;8.662;2023-03-01T15:09:27;10.60;57.60
21169;DHT22;10742;51.816;8.662;2023-03-01T15:12:40;10.60;57.80
21169;DHT22;10742;51.816;8.662;2023-03-01T15:15:47;10.60;57.90
21169;DHT22;10742;51.816;8.662;2023-03-01T15:18:55;10.60;57.90
21169;DHT22;10742;51.816;8.662;2023-03-01T15:21:58;10.60;57.70
21169;DHT22;10742;51.816;8.662;2023-03-01T15:25:01;10.60;57.90
21169;DHT22;10742;51.816;8.662;2023-03-01T15:28:04;10.60;57.30
21169;DHT22;10742;51.816;8.662;2023-03-01T15:34:21;10.50;57.90
21169;DHT22;10742;51.816;8.662;2023-03-01T15:37:47;10.50;58.20
21169;DHT22;10742;51.816;8.662;2023-03-01T15:40:51;10.50;58.00
21169;DHT22;10742;51.816;8.662;2023-03-01T15:43:54;10.50;58.40
21169;DHT22;10742;51.816;8.662;2023-03-01T15:46:58;10.50;58.40
21169;DHT22;10742;51.816;8.662;2023-03-01T15:50:01;10.50;58.50
21169;DHT22;10742;51.816;8.662;2023-03-01T15:53:07;10.40;58.60
21169;DHT22;10742;51.816;8.662;2023-03-01T15:56:10;10.40;58.50
21169;DHT22;10742;51.816;8.662;2023-03-01T15:59:15;10.30;58.60
21169;DHT22;10742;51.816;8.662;2023-03-01T16:02:17;10.30;58.50
21169;DHT22;10742;51.816;8.662;2023-03-01T16:05:33;10.30;58.40
21169;DHT22;10742;51.816;8.662;2023-03-01T16:08:38;10.20;58.20
21169;DHT22;10742;51.816;8.662;2023-03-01T16:11:40;10.20;58.40
21169;DHT22;10742;51.816;8.662;2023-03-01T16:14:44;10.10;58.40
21169;DHT22;10742;51.816;8.662;2023-03-01T16:17:47;10.10;58.60
21169;DHT22;10742;51.816;8.662;2023-03-01T16:20:56;10.10;58.60
21169;DHT22;10742;51.816;8.662;2023-03-01T16:23:58;10.00;59.40
21169;DHT22;10742;51.816;8.662;2023-03-01T16:27:01;10.00;58.80
21169;DHT22;10742;51.816;8.662;2023-03-01T16:30:06;10.00;58.60
21169;DHT22;10742;51.816;8.662;2023-03-01T16:33:08;10.00;58.60
21169;DHT22;10742;51.816;8.662;2023-03-01T16:36:26;9.90;58.60
21169;DHT22;10742;51.816;8.662;2023-03-01T16:39:30;9.90;58.60
21169;DHT22;10742;51.816;8.662;2023-03-01T16:42:36;9.90;58.50
21169;DHT22;10742;51.816;8.662;2023-03-01T16:45:43;9.80;58.50
21169;DHT22;10742;51.816;8.662;2023-03-01T16:48:50;9.80;58.80
21169;DHT22;10742;51.816;8.662;2023-03-01T16:51:55;9.70;58.70
21169;DHT22;10742;51.816;8.662;2023-03-01T16:55:08;9.60;58.90
21169;DHT22;10742;51.816;8.662;2023-03-01T16:58:19;9.60;59.10
21169;DHT22;10742;51.816;8.662;2023-03-01T17:01:22;9.50;59.30
21169;DHT22;10742;51.816;8.662;2023-03-01T17:04:26;9.40;59.30
21169;DHT22;10742;51.816;8.662;2023-03-01T17:07:32;9.40;59.50
21169;DHT22;10742;51.816;8.662;2023-03-01T17:10:38;9.30;59.70
21169;DHT22;10742;51.816;8.662;2023-03-01T17:13:41;9.20;59.70
21169;DHT22;10742;51.816;8.662;2023-03-01T17:16:49;9.20;59.90
21169;DHT22;10742;51.816;8.662;2023-03-01T17:20:07;9.10;60.00
21169;DHT22;10742;51.816;8.662;2023-03-01T17:23:10;9.10;60.00
21169;DHT22;10742;51.816;8.662;2023-03-01T17:26:16;9.00;60.90
21169;DHT22;10742;51.816;8.662;2023-03-01T17:29:20;9.00;60.20
21169;DHT22;10742;51.816;8.662;2023-03-01T17:32:23;8.90;60.30
21169;DHT22;10742;51.816;8.662;2023-03-01T17:35:25;8.80;60.40
21169;DHT22;10742;51.816;8.662;2023-03-01T17:38:29;8.70;60.40
21169;DHT22;10742;51.816;8.662;2023-03-01T17:41:42;8.70;60.60
21169;DHT22;10742;51.816;8.662;2023-03-01T17:44:50;8.60;60.90
21169;DHT22;10742;51.816;8.662;2023-03-01T17:47:56;8.50;61.00
21169;DHT22;10742;51.816;8.662;2023-03-01T17:50:58;8.40;61.20
21169;DHT22;10742;51.816;8.662;2023-03-01T17:54:01;8.30;61.40
21169;DHT22;10742;51.816;8.662;2023-03-01T17:57:03;8.20;61.50
21169;DHT22;10742;51.816;8.662;2023-03-01T18:00:10;8.20;61.60
21169;DHT22;10742;51.816;8.662;2023-03-01T18:03:15;8.20;61.80
21169;DHT22;10742;51.816;8.662;2023-03-01T18:06:24;8.20;62.00
21169;DHT22;10742;51.816;8.662;2023-03-01T18:09:27;8.10;62.00
21169;DHT22;10742;51.816;8.662;2023-03-01T18:12:33;7.80;63.30
21169;DHT22;10742;51.816;8.662;2023-03-01T18:15:46;7.90;63.40
21169;DHT22;10742;51.816;8.662;2023-03-01T18:18:53;8.00;63.10
21169;DHT22;10742;51.816;8.662;2023-03-01T18:21:55;8.00;62.80
21169;DHT22;10742;51.816;8.662;2023-03-01T18:24:58;8.00;62.60
21169;DHT22;10742;51.816;8.662;2023-03-01T18:28:03;8.00;62.50
21169;DHT22;10742;51.816;8.662;2023-03-01T18:31:08;8.00;62.40
21169;DHT22;10742;51.816;8.662;2023-03-01T18:34:12;7.90;62.40
21169;DHT22;10742;51.816;8.662;2023-03-01T18:37:15;7.90;62.60
21169;DHT22;10742;51.816;8.662;2023-03-01T18:40:28;7.90;62.70
21169;DHT22;10742;51.816;8.662;2023-03-01T18:43:31;7.80;62.60
21169;DHT22;10742;51.816;8.662;2023-03-01T18:46:34;7.80;62.70
21169;DHT22;10742;51.816;8.662;2023-03-01T18:49:39;7.80;62.70
21169;DHT22;10742;51.816;8.662;2023-03-01T18:52:42;7.80;62.80
21169;DHT22;10742;51.816;8.662;2023-03-01T18:55:45;7.70;62.80
21169;DHT22;10742;51.816;8.662;2023-03-01T18:58:49;7.70;62.90
21169;DHT22;10742;51.816;8.662;2023-03-01T19:01:53;7.60;63.10
21169;DHT22;10742;51.816;8.662;2023-03-01T19:04:55;7.60;63.20
21169;DHT22;10742;51.816;8.662;2023-03-01T19:07:59;7.50;63.20
21169;DHT22;10742;51.816;8.662;2023-03-01T19:11:04;7.50;63.20
21169;DHT22;10742;51.816;8.662;2023-03-01T19:14:09;7.50;63.30
21169;DHT22;10742;51.816;8.662;2023-03-01T19:17:18;7.40;63.50
21169;DHT22;10742;51.816;8.662;2023-03-01T19:20:22;7.40;63.60
21169;DHT22;10742;51.816;8.662;2023-03-01T19:23:25;7.40;63.60
21169;DHT22;10742;51.816;8.662;2023-03-01T19:26:28;7.30;63.60
21169;DHT22;10742;51.816;8.662;2023-03-01T19:29:32;7.30;63.60
21169;DHT22;10742;51.816;8.662;2023-03-01T19:32:37;7.20;63.60
21169;DHT22;10742;51.816;8.662;2023-03-01T19:35:40;7.20;63.80
21169;DHT22;10742;51.816;8.662;2023-03-01T19:38:45;7.10;64.10
21169;DHT22;10742;51.816;8.662;2023-03-01T19:41:48;6.90;64.20
21169;DHT22;10742;51.816;8.662;2023-03-01T19:44:51;6.90;64.60
21169;DHT22;10742;51.816;8.662;2023-03-01T19:47:57;6.80;64.80
21169;DHT22;10742;51.816;8.662;2023-03-01T19:50:59;6.70;65.10
21169;DHT22;10742;51.816;8.662;2023-03-01T19:54:03;6.60;65.40
21169;DHT22;10742;51.816;8.662;2023-03-01T19:57:06;6.50;65.60
21169;DHT22;10742;51.816;8.662;2023-03-01T20:00:09;6.50;66.00
21169;DHT22;10742;51.816;8.662;2023-03-01T20:03:15;6.40;66.10
21169;DHT22;10742;51.816;8.662;2023-03-01T20:06:19;6.40;66.20
21169;DHT22;10742;51.816;8.662;2023-03-01T20:09:22;6.40;66.40
21169;DHT22;10742;51.816;8.662;2023-03-01T20:12:24;6.40;66.50
21169;DHT22;10742;51.816;8.662;2023-03-01T20:15:27;6.30;66.60
21169;DHT22;10742;51.816;8.662;2023-03-01T20:18:30;6.40;66.70
21169;DHT22;10742;51.816;8.662;2023-03-01T20:21:33;6.40;66.70
21169;DHT22;10742;51.816;8.662;2023-03-01T20:24:38;6.40;66.60
21169;DHT22;10742;51.816;8.662;2023-03-01T20:27:42;6.40;66.70
21169;DHT22;10742;51.816;8.662;2023-03-01T20:30:48;6.40;66.70
21169;DHT22;10742;51.816;8.662;2023-03-01T20:33:51;6.40;66.60
21169;DHT22;10742;51.816;8.662;2023-03-01T20:36:55;6.40;66.60
21169;DHT22;10742;51.816;8.662;2023-03-01T20:39:57;6.40;66.60
21169;DHT22;10742;51.816;8.662;2023-03-01T20:43:06;6.40;66.50
21169;DHT22;10742;51.816;8.662;2023-03-01T20:46:48;6.50;66.50
21169;DHT22;10742;51.816;8.662;2023-03-01T20:49:52;6.40;66.30
21169;DHT22;10742;51.816;8.662;2023-03-01T20:52:55;6.40;66.30
21169;DHT22;10742;51.816;8.662;2023-03-01T20:56:05;6.40;66.30
21169;DHT22;10742;51.816;8.662;2023-03-01T20:59:11;6.40;66.50
21169;DHT22;10742;51.816;8.662;2023-03-01T21:02:14;6.40;66.20
21169;DHT22;10742;51.816;8.662;2023-03-01T21:05:20;6.40;66.20
21169;DHT22;10742;51.816;8.662;2023-03-01T21:08:25;6.40;66.20
21169;DHT22;10742;51.816;8.662;2023-03-01T21:11:42;6.40;66.20
21169;DHT22;10742;51.816;8.662;2023-03-01T21:14:44;6.40;66.00
21169;DHT22;10742;51.816;8.662;2023-03-01T21:17:48;6.40;66.00
21169;DHT22;10742;51.816;8.662;2023-03-01T21:25:01;6.30;66.10
21169;DHT22;10742;51.816;8.662;2023-03-01T21:28:03;6.20;65.90
21169;DHT22;10742;51.816;8.662;2023-03-01T21:34:12;6.10;66.20
21169;DHT22;10742;51.816;8.662;2023-03-01T21:37:15;6.00;66.20
21169;DHT22;10742;51.816;8.662;2023-03-01T21:40:18;6.00;66.30
21169;DHT22;10742;51.816;8.662;2023-03-01T21:43:20;6.00;66.40
21169;DHT22;10742;51.816;8.662;2023-03-01T21:46:24;5.90;66.50
21169;DHT22;10742;51.816;8.662;2023-03-01T21:49:27;5.90;66.60
21169;DHT22;10742;51.816;8.662;2023-03-01T21:52:30;5.90;66.50